createdAt,value
2023-03-27T05:27:54.431Z,7.30
2023-03-27T05:30:25.066Z,4.00
2023-03-27T05:33:07.880Z,4.10
2023-03-27T05:35:36.374Z,3.90
2023-03-27T05:38:04.423Z,3.90
2023-03-27T05:40:43.828Z,3.70
2023-03-27T05:43:16.982Z,3.60
2023-03-27T05:45:45.197Z,3.40
2023-03-27T05:48:14.874Z,3.60
2023-03-27T05:50:43.609Z,3.20
2023-03-27T05:53:20.050Z,3.50
2023-03-27T05:56:19.476Z,3.20
2023-03-27T05:58:55.714Z,3.60
2023-03-27T06:01:25.881Z,3.50
2023-03-27T06:03:57.843Z,3.50
2023-03-27T06:06:30.196Z,3.30
2023-03-27T06:09:00.242Z,3.30
2023-03-27T06:11:29.523Z,3.30
2023-03-27T06:13:59.854Z,3.40
2023-03-27T06:16:43.749Z,3.30
2023-03-27T06:19:39.509Z,3.20
2023-03-27T06:22:09.090Z,3.00
2023-03-27T06:29:40.610Z,3.00
2023-03-27T06:32:08.878Z,2.90
2023-03-27T06:34:45.285Z,2.90
2023-03-27T06:37:36.902Z,2.90
2023-03-27T06:40:10.323Z,3.00
2023-03-27T06:42:41.703Z,2.90
2023-03-27T06:45:27.702Z,3.10
2023-03-27T06:48:21.431Z,3.10
2023-03-27T06:50:54.592Z,3.10
2023-03-27T06:53:27.937Z,3.00
2023-03-27T06:55:58.357Z,3.00
2023-03-27T06:58:28.541Z,3.10
2023-03-27T07:00:57.168Z,2.90
2023-03-27T07:03:38.716Z,3.30
2023-03-27T07:06:26.713Z,3.20
2023-03-27T07:09:00.290Z,2.70
2023-03-27T07:11:30.577Z,3.10
2023-03-27T07:14:03.797Z,2.90
2023-03-27T07:16:32.371Z,2.80
2023-03-27T07:19:02.519Z,2.90
2023-03-27T07:21:34.903Z,3.00
2023-03-27T07:24:04.698Z,3.20
2023-03-27T07:26:35.181Z,3.20
2023-03-27T07:29:10.875Z,3.10
2023-03-27T07:31:55.932Z,2.90
2023-03-27T07:34:33.947Z,3.00
2023-03-27T07:37:24.135Z,3.00
2023-03-27T07:40:29.469Z,3.00
2023-03-27T07:43:43.482Z,3.10
2023-03-27T07:46:11.936Z,3.20
2023-03-27T07:51:17.368Z,2.70
2023-03-27T07:53:49.177Z,2.70
2023-03-27T07:56:22.002Z,3.00
2023-03-27T07:58:51.538Z,3.20
2023-03-27T08:01:22.265Z,3.00
2023-03-27T08:03:52.386Z,3.00
2023-03-27T08:08:51.956Z,3.10
2023-03-27T08:11:30.441Z,3.10
2023-03-27T08:13:59.803Z,3.10
2023-03-27T08:16:30.003Z,3.10
2023-03-27T08:19:01.095Z,2.80
2023-03-27T08:21:31.895Z,3.30
2023-03-27T08:29:09.009Z,3.40
2023-03-27T08:36:47.903Z,3.40
2023-03-27T08:39:18.606Z,3.40
2023-03-27T08:42:00.963Z,3.60
2023-03-27T10:38:43.987Z,3.70
2023-03-27T15:48:01.268Z,9.10
2023-03-27T15:50:29.486Z,4.50
2023-03-27T15:52:58.800Z,4.70
2023-03-27T15:55:39.554Z,4.30
2023-03-27T21:33:23.143Z,4.40
2023-03-27T21:35:51.379Z,2.40
2023-03-27T21:38:19.916Z,2.10
2023-03-27T21:40:48.319Z,2.40
2023-03-27T21:43:16.704Z,2.20
2023-03-27T21:45:46.629Z,2.20
2023-03-27T21:48:14.818Z,2.20
2023-03-27T21:50:44.382Z,2.20
2023-03-27T21:53:13.482Z,2.20
2023-03-27T21:55:42.582Z,2.30
2023-03-27T21:58:11.102Z,2.30
2023-03-27T22:00:39.131Z,2.30
2023-03-27T22:03:07.264Z,2.10
2023-03-27T22:05:37.810Z,2.10
2023-03-27T22:08:07.730Z,2.20
2023-03-27T22:10:36.681Z,2.40
2023-03-27T22:13:05.216Z,2.10
2023-03-27T22:15:33.397Z,2.30
2023-03-27T22:18:01.591Z,2.00
2023-03-27T22:20:29.743Z,2.00
2023-03-27T22:22:57.843Z,2.10
2023-03-27T22:25:27.440Z,2.00
2023-03-27T22:27:55.510Z,1.90
2023-03-27T22:30:23.541Z,2.20
2023-03-27T22:32:51.627Z,2.00
2023-03-27T22:35:19.725Z,2.00
2023-03-27T22:37:47.873Z,2.00
2023-03-27T22:40:15.959Z,1.90
2023-03-27T22:42:45.667Z,2.10
2023-03-27T22:45:13.616Z,2.10
2023-03-27T22:47:41.635Z,1.80
2023-03-27T22:50:10.850Z,2.20
2023-03-27T22:52:38.811Z,1.90
2023-03-27T22:55:07.978Z,1.90
2023-03-27T22:57:36.878Z,1.80
2023-03-27T23:00:08.021Z,1.70
2023-03-27T23:02:36.514Z,1.70
2023-03-27T23:05:04.856Z,1.80
2023-03-27T23:07:32.792Z,1.80
2023-03-27T23:10:00.862Z,1.80
2023-03-27T23:12:29.012Z,1.90
2023-03-27T23:14:57.045Z,1.90
2023-03-27T23:17:27.269Z,1.40
2023-03-27T23:19:55.384Z,1.80
2023-03-27T23:22:23.364Z,1.80
2023-03-27T23:24:51.390Z,1.20
2023-03-27T23:27:19.466Z,1.60
2023-03-27T23:29:48.041Z,1.80
2023-03-27T23:32:16.217Z,1.80
2023-03-27T23:34:45.739Z,1.70
2023-03-27T23:37:14.257Z,1.90
2023-03-27T23:39:42.330Z,1.60
2023-03-27T23:42:10.386Z,1.70
2023-03-27T23:44:38.427Z,1.80
2023-03-27T23:47:07.016Z,1.70
2023-03-27T23:49:36.044Z,1.80
2023-03-27T23:52:05.553Z,1.70
2023-03-27T23:54:33.614Z,1.90
2023-03-27T23:57:01.658Z,1.80
2023-03-27T23:59:38.112Z,1.80
